Buchanan, Georgia
Current Conditions -  °F | °C
As of 6:15 AM on Sunday 23 Nov 2014 (Local Time) from KPUJ Reporting Station
Haze Haze  
Wind Chill: 41°   Ceiling: 200
Heat Index: 46°   Visibility: 5mi
Dew Point: 46°   Wind: 12mph
Humidity: 100%   Direction: 120°ESE
Pressure: 30.01"   Gusts: 16mph
Location:  33.8°N, 85.19°W
Report Text: KPUJ 231115Z AUTO 12010G14KT 5SM BR OVC002 08/08 A3001 RMK AO2
Loading
Personal Weather Stations






























Interactive Weather Map New forecast layout! Learn more

10-Day Weather Forecast

Advertisements
Track Severe Weather on mobile